Time,TemperatureF,DewpointF,PressureIn,WindDirection,WindDirectionDegrees,WindSpeedMPH,WindSpeedGustMPH,Humidity,HourlyPrecipIn,Conditions,Clouds,dailyrainin,SolarRadiationWatts/m^2,SoftwareType,DateUTC
2013-07-19 00:22:00,74.0,74.0,-100.00,SW,214,3.0,4.0,99,0.00,,,0.00,0.000000,,2013-07-19 04:22:00,
2013-07-19 00:33:00,74.0,74.0,-100.00,SW,214,3.0,4.0,99,0.00,,,0.00,0.000000,,2013-07-19 04:33:00,
2013-07-19 00:44:00,74.0,74.0,-100.00,SW,214,3.0,4.0,99,0.00,,,0.00,0.000000,,2013-07-19 04:44:00,
2013-07-19 01:22:00,74.0,74.0,-100.00,West,277,0.0,4.0,99,0.00,,,0.00,0.000000,,2013-07-19 05:22:00,
2013-07-19 01:32:00,74.0,74.0,-100.00,West,277,0.0,4.0,99,0.00,,,0.00,0.000000,,2013-07-19 05:32:00,
2013-07-19 01:43:00,74.0,74.0,-100.00,West,277,0.0,4.0,99,0.00,,,0.00,0.000000,,2013-07-19 05:43:00,
2013-07-19 02:11:00,73.0,73.0,-100.00,NW,305,0.0,2.0,100,0.00,,,0.00,0.000000,,2013-07-19 06:11:00,
2013-07-19 02:22:00,73.0,73.0,-100.00,NW,305,0.0,2.0,100,0.00,,,0.00,0.000000,,2013-07-19 06:22:00,
2013-07-19 02:33:00,73.0,73.0,-100.00,NW,305,0.0,2.0,100,0.00,,,0.00,0.000000,,2013-07-19 06:33:00,
2013-07-19 02:43:00,73.0,73.0,-100.00,NW,305,0.0,2.0,100,0.00,,,0.00,0.000000,,2013-07-19 06:43:00,
2013-07-19 03:12:00,72.0,72.0,-100.00,NW,306,0.0,0.0,100,0.00,,,0.00,0.000000,,2013-07-19 07:12:00,
2013-07-19 03:22:00,72.0,72.0,-100.00,NW,306,0.0,0.0,100,0.00,,,0.00,0.000000,,2013-07-19 07:22:00,
2013-07-19 03:32:00,72.0,72.0,-100.00,NW,306,0.0,0.0,100,0.00,,,0.00,0.000000,,2013-07-19 07:32:00,
2013-07-19 03:43:00,72.0,72.0,-100.00,NW,306,0.0,0.0,100,0.00,,,0.00,0.000000,,2013-07-19 07:43:00,
2013-07-19 04:12:00,72.0,72.0,-100.00,SSW,205,2.0,4.0,100,0.00,,,-99.99,0.000000,,2013-07-19 08:12:00,
2013-07-19 04:22:00,72.0,72.0,-100.00,SSW,205,2.0,4.0,100,0.00,,,-99.99,0.000000,,2013-07-19 08:22:00,
2013-07-19 04:33:00,72.0,72.0,-100.00,SSW,205,2.0,4.0,100,0.00,,,-99.99,0.000000,,2013-07-19 08:33:00,
2013-07-19 04:43:00,72.0,72.0,-100.00,SSW,205,2.0,4.0,100,0.00,,,-99.99,0.000000,,2013-07-19 08:43:00,
2013-07-19 05:11:00,72.0,72.0,-100.00,WSW,244,0.0,4.0,100,0.00,,,-99.99,0.000000,,2013-07-19 09:11:00,
2013-07-19 05:22:00,72.0,72.0,-100.00,WSW,244,0.0,4.0,100,0.00,,,-99.99,0.000000,,2013-07-19 09:22:00,
2013-07-19 05:32:00,72.0,72.0,-100.00,WSW,244,0.0,4.0,100,0.00,,,-99.99,0.000000,,2013-07-19 09:32:00,
2013-07-19 05:43:00,72.0,72.0,-100.00,WSW,244,0.0,4.0,100,0.00,,,-99.99,0.000000,,2013-07-19 09:43:00,
2013-07-19 06:22:00,71.0,71.0,-100.00,SE,143,0.0,2.0,100,0.00,,,0.00,0.000000,,2013-07-19 10:22:00,
2013-07-19 06:32:00,71.0,71.0,-100.00,SE,143,0.0,2.0,100,0.00,,,0.00,0.000000,,2013-07-19 10:32:00,
2013-07-19 06:43:00,71.0,71.0,-100.00,SE,143,0.0,2.0,100,0.00,,,0.00,0.000000,,2013-07-19 10:43:00,
2013-07-19 07:22:00,71.0,71.0,-100.00,WSW,244,1.0,4.0,100,0.00,,,0.00,5.000000,,2013-07-19 11:22:00,
2013-07-19 07:33:00,71.0,71.0,-100.00,WSW,244,1.0,4.0,100,0.00,,,0.00,5.000000,,2013-07-19 11:33:00,
2013-07-19 07:43:00,71.0,71.0,-100.00,WSW,244,1.0,4.0,100,0.00,,,0.00,5.000000,,2013-07-19 11:43:00,
2013-07-19 08:12:00,74.0,74.0,-100.00,SW,226,3.0,6.0,100,0.00,,,0.00,81.000000,,2013-07-19 12:12:00,
2013-07-19 08:22:00,74.0,74.0,-100.00,SW,226,3.0,6.0,100,0.00,,,0.00,81.000000,,2013-07-19 12:22:00,
2013-07-19 08:33:00,74.0,74.0,-100.00,SW,226,3.0,6.0,100,0.00,,,0.00,81.000000,,2013-07-19 12:33:00,
2013-07-19 08:43:00,74.0,74.0,-100.00,SW,226,3.0,6.0,100,0.00,,,0.00,81.000000,,2013-07-19 12:43:00,
2013-07-19 09:12:00,78.0,73.0,-100.00,SW,226,5.0,8.0,84,0.00,,,0.00,200.000000,,2013-07-19 13:12:00,
2013-07-19 09:22:00,78.0,73.0,-100.00,SW,226,5.0,8.0,84,0.00,,,0.00,200.000000,,2013-07-19 13:22:00,
2013-07-19 09:32:00,78.0,73.0,-100.00,SW,226,5.0,8.0,84,0.00,,,0.00,200.000000,,2013-07-19 13:32:00,
2013-07-19 09:43:00,78.0,73.0,-100.00,SW,226,5.0,8.0,84,0.00,,,0.00,200.000000,,2013-07-19 13:43:00,
2013-07-19 10:23:00,82.0,74.0,-100.00,WSW,246,7.0,11.0,77,0.00,,,0.00,401.000000,,2013-07-19 14:23:00,
2013-07-19 10:33:00,82.0,74.0,-100.00,WSW,246,7.0,11.0,77,0.00,,,0.00,401.000000,,2013-07-19 14:33:00,
2013-07-19 10:43:00,82.0,74.0,-100.00,WSW,246,7.0,11.0,77,0.00,,,0.00,401.000000,,2013-07-19 14:43:00,
2013-07-19 11:11:00,84.0,74.0,-100.00,WSW,247,6.0,11.0,73,0.00,,,0.00,591.000000,,2013-07-19 15:11:00,
2013-07-19 11:23:00,84.0,74.0,-100.00,WSW,247,6.0,11.0,73,0.00,,,0.00,591.000000,,2013-07-19 15:23:00,
2013-07-19 11:32:00,84.0,74.0,-100.00,WSW,247,6.0,11.0,73,0.00,,,0.00,591.000000,,2013-07-19 15:32:00,
2013-07-19 11:43:00,84.0,74.0,-100.00,WSW,247,6.0,11.0,73,0.00,,,0.00,591.000000,,2013-07-19 15:43:00,
2013-07-19 12:22:00,86.0,74.0,-100.00,SW,221,7.0,13.0,68,0.00,,,0.00,753.000000,,2013-07-19 16:22:00,
2013-07-19 12:32:00,86.0,74.0,-100.00,SW,221,7.0,13.0,68,0.00,,,0.00,753.000000,,2013-07-19 16:32:00,
2013-07-19 12:43:00,86.0,74.0,-100.00,SW,221,7.0,13.0,68,0.00,,,0.00,753.000000,,2013-07-19 16:43:00,
2013-07-19 13:22:00,85.0,72.0,-100.00,WSW,247,9.0,14.0,66,0.00,,,0.00,733.000000,,2013-07-19 17:22:00,
2013-07-19 13:32:00,85.0,72.0,-100.00,WSW,247,9.0,14.0,66,0.00,,,0.00,733.000000,,2013-07-19 17:32:00,
2013-07-19 13:43:00,85.0,72.0,-100.00,WSW,247,9.0,14.0,66,0.00,,,0.00,733.000000,,2013-07-19 17:43:00,
2013-07-19 14:22:00,87.0,72.0,-100.00,WSW,237,8.0,15.0,62,0.00,,,0.00,844.000000,,2013-07-19 18:22:00,
2013-07-19 14:32:00,87.0,72.0,-100.00,WSW,237,8.0,15.0,62,0.00,,,0.00,844.000000,,2013-07-19 18:32:00,
2013-07-19 14:42:00,87.0,72.0,-100.00,WSW,237,8.0,15.0,62,0.00,,,0.00,844.000000,,2013-07-19 18:42:00,
2013-07-19 15:22:00,86.0,75.0,-100.00,SSW,194,7.0,12.0,70,0.00,,,0.00,723.000000,,2013-07-19 19:22:00,
2013-07-19 15:32:00,86.0,75.0,-100.00,SSW,194,7.0,12.0,70,0.00,,,0.00,723.000000,,2013-07-19 19:32:00,
2013-07-19 15:43:00,86.0,75.0,-100.00,SSW,194,7.0,12.0,70,0.00,,,0.00,723.000000,,2013-07-19 19:43:00,
2013-07-19 16:22:00,88.0,76.0,-100.00,South,187,6.0,14.0,67,0.00,,,0.00,984.000000,,2013-07-19 20:22:00,
2013-07-19 16:33:00,88.0,76.0,-100.00,South,187,6.0,14.0,67,0.00,,,0.00,984.000000,,2013-07-19 20:33:00,
2013-07-19 16:43:00,88.0,76.0,-100.00,South,187,6.0,14.0,67,0.00,,,0.00,984.000000,,2013-07-19 20:43:00,
2013-07-19 17:11:00,89.0,75.0,-100.00,SSW,207,7.0,12.0,63,0.00,,,0.00,818.000000,,2013-07-19 21:11:00,
2013-07-19 17:22:00,89.0,75.0,-100.00,SSW,207,7.0,12.0,63,0.00,,,0.00,818.000000,,2013-07-19 21:22:00,
2013-07-19 17:32:00,89.0,75.0,-100.00,SSW,207,7.0,12.0,63,0.00,,,0.00,818.000000,,2013-07-19 21:32:00,
2013-07-19 17:42:00,89.0,75.0,-100.00,SSW,207,7.0,12.0,63,0.00,,,0.00,818.000000,,2013-07-19 21:42:00,
2013-07-19 18:21:00,87.0,71.0,-100.00,WSW,242,10.0,14.0,59,0.00,,,0.00,648.000000,,2013-07-19 22:21:00,
2013-07-19 18:32:00,87.0,71.0,-100.00,WSW,242,10.0,14.0,59,0.00,,,0.00,648.000000,,2013-07-19 22:32:00,
2013-07-19 18:43:00,87.0,71.0,-100.00,WSW,242,10.0,14.0,59,0.00,,,0.00,648.000000,,2013-07-19 22:43:00,
2013-07-19 19:21:00,88.0,72.0,-100.00,SW,220,6.0,14.0,60,0.00,,,0.00,495.000000,,2013-07-19 23:21:00,
2013-07-19 19:33:00,88.0,72.0,-100.00,SW,220,6.0,14.0,60,0.00,,,0.00,495.000000,,2013-07-19 23:33:00,
2013-07-19 19:43:00,88.0,72.0,-100.00,SW,220,6.0,14.0,60,0.00,,,0.00,495.000000,,2013-07-19 23:43:00,
2013-07-19 20:11:00,86.0,73.0,-100.00,SSW,204,5.0,13.0,65,0.00,,,0.00,257.000000,,2013-07-20 00:11:00,
2013-07-19 20:22:00,86.0,73.0,-100.00,SSW,204,5.0,13.0,65,0.00,,,0.00,257.000000,,2013-07-20 00:22:00,
2013-07-19 20:32:00,86.0,73.0,-100.00,SSW,204,5.0,13.0,65,0.00,,,0.00,257.000000,,2013-07-20 00:32:00,
2013-07-19 20:43:00,86.0,73.0,-100.00,SSW,204,5.0,13.0,65,0.00,,,0.00,257.000000,,2013-07-20 00:43:00,
2013-07-19 21:11:00,82.0,72.0,-100.00,SW,220,4.0,9.0,71,0.00,,,-99.99,78.000000,,2013-07-20 01:11:00,
2013-07-19 21:22:00,82.0,72.0,-100.00,SW,220,4.0,9.0,71,0.00,,,-99.99,78.000000,,2013-07-20 01:22:00,
2013-07-19 21:32:00,82.0,72.0,-100.00,SW,220,4.0,9.0,71,0.00,,,-99.99,78.000000,,2013-07-20 01:32:00,
2013-07-19 22:11:00,79.0,72.0,-100.00,SSW,207,4.0,6.0,78,0.00,,,0.00,4.000000,,2013-07-20 02:11:00,
2013-07-19 22:22:00,79.0,72.0,-100.00,SSW,207,4.0,6.0,78,0.00,,,0.00,4.000000,,2013-07-20 02:22:00,
2013-07-19 22:33:00,79.0,72.0,-100.00,SSW,207,4.0,6.0,78,0.00,,,0.00,4.000000,,2013-07-20 02:33:00,
2013-07-19 22:43:00,79.0,72.0,-100.00,SSW,207,4.0,6.0,78,0.00,,,0.00,4.000000,,2013-07-20 02:43:00,
2013-07-19 23:12:00,76.0,70.0,-100.00,SSW,207,2.0,6.0,82,0.00,,,0.00,0.000000,,2013-07-20 03:12:00,
2013-07-19 23:22:00,76.0,70.0,-100.00,SSW,207,2.0,6.0,82,0.00,,,0.00,0.000000,,2013-07-20 03:22:00,
2013-07-19 23:32:00,76.0,70.0,-100.00,SSW,207,2.0,6.0,82,0.00,,,0.00,0.000000,,2013-07-20 03:32:00,
2013-07-19 23:44:00,76.0,70.0,-100.00,SSW,207,2.0,6.0,82,0.00,,,0.00,0.000000,,2013-07-20 03:44:00,